Time;durP1;ratioP1;P1;durP2;ratioP2;P2;SDS_P1;SDS_P2;PMS_P1;PMS_P2;Temp;Humidity;BMP_temperature;BMP_pressure;BME280_temperature;BME280_humidity;BME280_pressure;Samples;Min_cycle;Max_cycle;Signal;HPM_P1;HPM_P2
2023/03/28 00:01:23;;;;;;;1.88;1.33;;;;;;;;;;4989477;28;20677;-79
2023/03/28 00:03:48;;;;;;;3.10;1.50;;;;;;;;;;5006971;28;20030;-79
2023/03/28 00:06:17;;;;;;;1.05;1.00;;;;;;;;;;5004443;28;20519;-78
2023/03/28 00:08:44;;;;;;;0.80;0.80;;;;;;;;;;5006817;28;20120;-79
2023/03/28 00:11:46;;;;;;;2.35;1.50;;;;;;;;;;5000014;28;20053;-78
2023/03/28 00:14:13;;;;;;;0.80;0.80;;;;;;;;;;4991515;28;20053;-79
2023/03/28 00:16:39;;;;;;;0.52;0.52;;;;;;;;;;4998079;28;20044;-79
2023/03/28 00:19:10;;;;;;;1.65;1.00;;;;;;;;;;4982495;28;20034;-78
2023/03/28 00:21:45;;;;;;;4.75;1.85;;;;;;;;;;4981917;28;20033;-79
2023/03/28 00:24:13;;;;;;;3.38;1.30;;;;;;;;;;4994575;28;20060;-79
2023/03/28 00:26:39;;;;;;;1.35;0.85;;;;;;;;;;4993189;28;20037;-79
2023/03/28 00:29:07;;;;;;;1.08;0.98;;;;;;;;;;4993466;28;20042;-79
2023/03/28 00:31:36;;;;;;;0.88;0.88;;;;;;;;;;4991866;28;20037;-78
2023/03/28 00:34:01;;;;;;;0.93;0.93;;;;;;;;;;4989682;28;20041;-79
2023/03/28 00:36:28;;;;;;;1.55;0.93;;;;;;;;;;4991531;28;20042;-79
2023/03/28 00:38:54;;;;;;;1.05;1.00;;;;;;;;;;4988158;28;20028;-79
2023/03/28 00:41:21;;;;;;;1.35;0.95;;;;;;;;;;4994173;28;20042;-79
2023/03/28 00:43:50;;;;;;;2.33;1.20;;;;;;;;;;4997946;28;20420;-79
2023/03/28 00:46:28;;;;;;;0.93;0.80;;;;;;;;;;4996645;28;20532;-79
2023/03/28 00:49:20;;;;;;;3.13;1.23;;;;;;;;;;4995720;28;20034;-79
2023/03/28 00:52:03;;;;;;;1.95;1.50;;;;;;;;;;5000031;28;20041;-79
2023/03/28 00:54:34;;;;;;;2.08;0.93;;;;;;;;;;5004234;28;20879;-79
2023/03/28 00:57:01;;;;;;;0.73;0.73;;;;;;;;;;5001689;28;20795;-79
2023/03/28 00:59:31;;;;;;;1.38;1.02;;;;;;;;;;4997111;28;20032;-79
2023/03/28 01:01:57;;;;;;;0.82;0.82;;;;;;;;;;5001157;28;20030;-80
2023/03/28 01:04:26;;;;;;;1.27;1.20;;;;;;;;;;5000637;28;20026;-79
2023/03/28 01:06:53;;;;;;;0.68;0.68;;;;;;;;;;4996862;28;20055;-79
2023/03/28 01:09:20;;;;;;;6.07;2.72;;;;;;;;;;4997660;28;20353;-79
2023/03/28 01:11:46;;;;;;;1.48;1.30;;;;;;;;;;4997371;28;20133;-79
2023/03/28 01:14:16;;;;;;;4.75;1.00;;;;;;;;;;4997945;28;20137;-79
2023/03/28 01:16:44;;;;;;;5.70;1.10;;;;;;;;;;4998072;28;20057;-79
2023/03/28 01:19:41;;;;;;;1.20;1.20;;;;;;;;;;4993313;28;20037;-79
2023/03/28 01:22:32;;;;;;;1.92;0.90;;;;;;;;;;4996472;28;20032;-79
2023/03/28 01:25:12;;;;;;;0.98;0.98;;;;;;;;;;4999124;28;20057;-80
2023/03/28 01:28:03;;;;;;;2.20;1.27;;;;;;;;;;5002063;28;20388;-77
2023/03/28 01:30:39;;;;;;;1.92;0.82;;;;;;;;;;5004598;28;20061;-81
2023/03/28 01:33:28;;;;;;;1.20;1.10;;;;;;;;;;5006028;28;20045;-79
2023/03/28 01:36:07;;;;;;;1.05;0.95;;;;;;;;;;5006220;28;20034;-80
2023/03/28 01:38:56;;;;;;;4.57;2.80;;;;;;;;;;5006154;28;20029;-78
2023/03/28 01:41:48;;;;;;;1.25;0.80;;;;;;;;;;5005523;28;20102;-79
2023/03/28 01:44:43;;;;;;;3.58;1.52;;;;;;;;;;5005865;28;20522;-79
2023/03/28 01:47:11;;;;;;;1.17;1.10;;;;;;;;;;5023398;28;20041;-78
2023/03/28 01:49:50;;;;;;;2.25;0.90;;;;;;;;;;5011034;28;20397;-79
2023/03/28 01:52:51;;;;;;;1.48;1.10;;;;;;;;;;5003059;28;20127;-79
2023/03/28 01:55:26;;;;;;;6.50;1.80;;;;;;;;;;5003011;28;20124;-79
2023/03/28 01:58:03;;;;;;;2.08;1.33;;;;;;;;;;4998085;28;20120;-79
2023/03/28 02:00:33;;;;;;;8.00;1.25;;;;;;;;;;4995808;28;20033;-79
2023/03/28 02:03:10;;;;;;;1.38;1.23;;;;;;;;;;4997373;28;20044;-79
2023/03/28 02:05:37;;;;;;;4.60;2.13;;;;;;;;;;4999375;28;20034;-80
2023/03/28 02:08:07;;;;;;;1.40;1.30;;;;;;;;;;5001141;28;20121;-80
2023/03/28 02:10:35;;;;;;;1.25;1.15;;;;;;;;;;4999394;28;20044;-80
2023/03/28 02:13:12;;;;;;;1.67;1.35;;;;;;;;;;4996280;28;20135;-80
2023/03/28 02:15:41;;;;;;;1.15;1.10;;;;;;;;;;4999369;28;20038;-80
2023/03/28 02:18:16;;;;;;;3.35;1.55;;;;;;;;;;4999050;28;20505;-79
2023/03/28 02:20:43;;;;;;;1.60;1.45;;;;;;;;;;4981924;28;20157;-80
2023/03/28 02:23:16;;;;;;;1.30;1.20;;;;;;;;;;4999793;28;20547;-80
2023/03/28 02:25:41;;;;;;;0.75;0.75;;;;;;;;;;4982240;28;20069;-80
2023/03/28 02:28:09;;;;;;;4.35;1.15;;;;;;;;;;5005998;28;20037;-79
2023/03/28 02:30:35;;;;;;;1.55;1.45;;;;;;;;;;5008484;28;20037;-79
2023/03/28 02:33:07;;;;;;;2.35;1.25;;;;;;;;;;5007103;28;20038;-80
2023/03/28 02:36:05;;;;;;;5.65;1.30;;;;;;;;;;5007693;28;20568;-79
2023/03/28 02:38:54;;;;;;;6.07;2.35;;;;;;;;;;5001730;28;20069;-79
2023/03/28 02:41:34;;;;;;;2.58;1.27;;;;;;;;;;5006722;28;20150;-79
2023/03/28 02:44:06;;;;;;;2.70;1.45;;;;;;;;;;5006169;28;20037;-80
2023/03/28 02:46:53;;;;;;;1.27;1.23;;;;;;;;;;5006155;28;20042;-80
2023/03/28 02:49:24;;;;;;;1.80;1.40;;;;;;;;;;5006331;28;20124;-79
2023/03/28 02:52:08;;;;;;;2.08;1.38;;;;;;;;;;5007242;28;20030;-79
2023/03/28 02:54:36;;;;;;;2.10;1.40;;;;;;;;;;4993213;28;20790;-79
2023/03/28 02:57:01;;;;;;;1.45;1.35;;;;;;;;;;5006905;28;20144;-79
2023/03/28 02:59:37;;;;;;;5.65;1.40;;;;;;;;;;5001290;28;20140;-80
2023/03/28 03:02:03;;;;;;;1.33;1.15;;;;;;;;;;4998941;28;21167;-78
2023/03/28 03:04:28;;;;;;;2.83;1.50;;;;;;;;;;4981886;28;20030;-78
2023/03/28 03:06:54;;;;;;;2.38;1.55;;;;;;;;;;4998351;28;20462;-78
2023/03/28 03:09:19;;;;;;;5.35;1.90;;;;;;;;;;4996890;28;20145;-78
2023/03/28 03:11:45;;;;;;;1.33;1.23;;;;;;;;;;4995427;28;20436;-80
2023/03/28 03:14:11;;;;;;;2.08;1.42;;;;;;;;;;4993483;28;20040;-80
2023/03/28 03:16:37;;;;;;;2.47;1.48;;;;;;;;;;4997501;28;20033;-80
2023/03/28 03:19:02;;;;;;;4.20;1.70;;;;;;;;;;4997117;28;20032;-80
2023/03/28 03:21:28;;;;;;;3.25;1.33;;;;;;;;;;4995134;28;20033;-80
2023/03/28 03:23:53;;;;;;;5.57;1.60;;;;;;;;;;4997807;28;20111;-80
2023/03/28 03:26:19;;;;;;;1.40;1.30;;;;;;;;;;4995465;28;20029;-80
2023/03/28 03:28:44;;;;;;;2.28;1.38;;;;;;;;;;5004816;28;20038;-80
2023/03/28 03:31:10;;;;;;;4.95;1.30;;;;;;;;;;4988360;28;20038;-80
2023/03/28 03:33:40;;;;;;;3.10;1.48;;;;;;;;;;5002808;28;20037;-80
2023/03/28 03:36:08;;;;;;;11.43;1.58;;;;;;;;;;5005408;28;20160;-80
2023/03/28 03:38:34;;;;;;;2.33;1.13;;;;;;;;;;5005604;28;20045;-80
2023/03/28 03:40:59;;;;;;;4.82;1.60;;;;;;;;;;5004897;28;20136;-79
2023/03/28 03:43:26;;;;;;;3.88;1.75;;;;;;;;;;5005928;28;20034;-79
2023/03/28 03:45:52;;;;;;;3.25;1.42;;;;;;;;;;5006877;28;20037;-79
2023/03/28 03:48:17;;;;;;;2.15;1.55;;;;;;;;;;5002939;28;20027;-80
2023/03/28 03:50:42;;;;;;;1.48;1.38;;;;;;;;;;5005894;28;20092;-80
2023/03/28 03:53:08;;;;;;;1.48;1.02;;;;;;;;;;5004156;28;20045;-80
2023/03/28 03:55:33;;;;;;;5.03;1.15;;;;;;;;;;5007198;28;20057;-80
2023/03/28 03:57:59;;;;;;;2.08;1.27;;;;;;;;;;5000319;28;20500;-80
2023/03/28 04:00:26;;;;;;;3.58;1.50;;;;;;;;;;4995293;28;20115;-80
2023/03/28 04:02:51;;;;;;;1.50;1.40;;;;;;;;;;4996651;28;20104;-80
2023/03/28 04:05:16;;;;;;;2.45;1.70;;;;;;;;;;4996757;28;20080;-79
2023/03/28 04:07:42;;;;;;;2.95;1.23;;;;;;;;;;4996500;28;21239;-80
2023/03/28 04:10:07;;;;;;;1.70;1.58;;;;;;;;;;4995182;28;20065;-80
2023/03/28 04:12:33;;;;;;;2.55;1.15;;;;;;;;;;4997749;28;20041;-80
2023/03/28 04:14:58;;;;;;;3.42;1.20;;;;;;;;;;4998080;28;20054;-80
2023/03/28 04:17:27;;;;;;;2.25;1.35;;;;;;;;;;5001632;28;20065;-80
2023/03/28 04:19:54;;;;;;;1.65;1.55;;;;;;;;;;5004537;28;20034;-78
2023/03/28 04:22:20;;;;;;;2.28;1.55;;;;;;;;;;4993833;28;20408;-80
2023/03/28 04:24:48;;;;;;;7.03;1.85;;;;;;;;;;4978733;28;20686;-80
2023/03/28 04:27:14;;;;;;;2.90;1.65;;;;;;;;;;4995948;28;20642;-80
2023/03/28 04:29:40;;;;;;;4.00;1.75;;;;;;;;;;4996701;28;20025;-80
2023/03/28 04:32:06;;;;;;;1.50;1.40;;;;;;;;;;5019965;23;20045;-81
2023/03/28 04:34:32;;;;;;;1.90;1.48;;;;;;;;;;5040159;28;20083;-81
2023/03/28 04:37:02;;;;;;;2.28;1.30;;;;;;;;;;5041607;28;20029;-81
2023/03/28 04:39:32;;;;;;;1.33;1.15;;;;;;;;;;5021654;28;20088;-81
2023/03/28 04:42:00;;;;;;;1.20;1.10;;;;;;;;;;5031830;28;20040;-82
2023/03/28 04:44:29;;;;;;;1.58;1.45;;;;;;;;;;5009453;28;20059;-82
2023/03/28 04:46:55;;;;;;;1.10;1.10;;;;;;;;;;5023690;28;20075;-82
2023/03/28 04:49:22;;;;;;;1.73;0.95;;;;;;;;;;5007846;28;20057;-81
2023/03/28 04:51:49;;;;;;;2.22;1.35;;;;;;;;;;5020737;28;20454;-80
2023/03/28 04:54:14;;;;;;;1.55;1.20;;;;;;;;;;5001748;28;20097;-79
2023/03/28 04:56:40;;;;;;;2.83;1.20;;;;;;;;;;5023061;28;20065;-81
2023/03/28 04:59:05;;;;;;;1.83;1.40;;;;;;;;;;5014020;28;20034;-80
2023/03/28 05:01:31;;;;;;;1.92;1.23;;;;;;;;;;5034782;28;20037;-82
2023/03/28 05:03:57;;;;;;;3.08;1.52;;;;;;;;;;5028027;28;20033;-81
2023/03/28 05:06:24;;;;;;;1.02;1.00;;;;;;;;;;5023445;28;20125;-82
2023/03/28 05:08:50;;;;;;;2.88;1.50;;;;;;;;;;5007134;28;20112;-80
2023/03/28 05:11:15;;;;;;;1.70;1.60;;;;;;;;;;5027974;28;20056;-81
2023/03/28 05:13:41;;;;;;;4.43;2.53;;;;;;;;;;5006938;28;20029;-79
2023/03/28 05:16:06;;;;;;;2.15;1.55;;;;;;;;;;5011125;28;20021;-79
2023/03/28 05:18:32;;;;;;;1.80;1.70;;;;;;;;;;5034374;28;20052;-81
2023/03/28 05:20:57;;;;;;;2.38;1.83;;;;;;;;;;5021645;28;20068;-81
2023/03/28 05:23:22;;;;;;;1.02;1.00;;;;;;;;;;5020864;28;20029;-81
2023/03/28 05:25:52;;;;;;;3.15;1.90;;;;;;;;;;5014194;28;20030;-80
2023/03/28 05:28:18;;;;;;;4.00;1.50;;;;;;;;;;5018662;28;20061;-81
2023/03/28 05:30:43;;;;;;;2.92;1.38;;;;;;;;;;5031032;28;20036;-82
2023/03/28 05:33:08;;;;;;;2.67;1.80;;;;;;;;;;5015822;28;20113;-82
2023/03/28 05:35:36;;;;;;;2.40;1.58;;;;;;;;;;5023915;28;20033;-80
2023/03/28 05:38:01;;;;;;;3.08;2.10;;;;;;;;;;5042580;28;20036;-81
2023/03/28 05:40:27;;;;;;;3.33;1.95;;;;;;;;;;5054805;28;20033;-80
2023/03/28 05:42:52;;;;;;;6.75;1.92;;;;;;;;;;5028435;28;20033;-80
2023/03/28 05:45:18;;;;;;;4.40;2.28;;;;;;;;;;5036709;28;20025;-81
2023/03/28 05:47:43;;;;;;;2.10;1.58;;;;;;;;;;5016992;28;20025;-80
2023/03/28 05:50:09;;;;;;;2.38;1.33;;;;;;;;;;5030811;28;20424;-82
2023/03/28 05:52:35;;;;;;;8.02;1.27;;;;;;;;;;5032701;28;20025;-81
2023/03/28 05:55:00;;;;;;;1.70;1.45;;;;;;;;;;5036173;28;20033;-80
2023/03/28 05:57:25;;;;;;;3.47;1.55;;;;;;;;;;5032437;28;20025;-81
2023/03/28 05:59:51;;;;;;;2.40;1.45;;;;;;;;;;5029481;28;20075;-81
2023/03/28 06:02:19;;;;;;;1.88;1.30;;;;;;;;;;5036209;28;20112;-81
2023/03/28 06:04:45;;;;;;;2.20;1.70;;;;;;;;;;5034847;28;20399;-80
2023/03/28 06:07:12;;;;;;;2.47;2.00;;;;;;;;;;5008053;28;20056;-80
2023/03/28 06:09:37;;;;;;;2.38;1.48;;;;;;;;;;5024355;28;20060;-81
2023/03/28 06:12:04;;;;;;;1.80;1.70;;;;;;;;;;5027837;28;20037;-81
2023/03/28 06:14:30;;;;;;;2.15;1.70;;;;;;;;;;5042926;28;20021;-80
2023/03/28 06:16:56;;;;;;;3.47;1.80;;;;;;;;;;5045354;28;20033;-82
2023/03/28 06:19:22;;;;;;;2.45;2.03;;;;;;;;;;5047201;28;20087;-82
2023/03/28 06:21:47;;;;;;;4.07;1.70;;;;;;;;;;5032581;28;20272;-82
2023/03/28 06:24:13;;;;;;;13.48;2.25;;;;;;;;;;5037615;28;20034;-81
2023/03/28 06:26:38;;;;;;;1.70;1.60;;;;;;;;;;5029692;28;20033;-81
2023/03/28 06:29:04;;;;;;;1.85;1.58;;;;;;;;;;5040907;28;20038;-80
2023/03/28 06:31:30;;;;;;;1.30;1.20;;;;;;;;;;5036130;28;20040;-81
2023/03/28 06:33:56;;;;;;;2.42;1.77;;;;;;;;;;5037688;28;20034;-82
2023/03/28 06:36:21;;;;;;;2.65;1.50;;;;;;;;;;5022856;28;20033;-81
2023/03/28 06:38:48;;;;;;;2.45;1.83;;;;;;;;;;5039401;28;20113;-82
2023/03/28 06:41:15;;;;;;;3.45;1.85;;;;;;;;;;5044562;28;20063;-80
2023/03/28 06:43:40;;;;;;;12.25;2.50;;;;;;;;;;5037532;28;20021;-81
2023/03/28 06:46:09;;;;;;;3.53;1.73;;;;;;;;;;5017626;28;20099;-82
2023/03/28 06:49:10;;;;;;;2.30;1.45;;;;;;;;;;5036882;28;20040;-82
2023/03/28 06:56:44;;;;;;;6.45;2.10;;;;;;;;;;5030779;28;20050;-82
2023/03/28 06:59:10;;;;;;;3.25;1.50;;;;;;;;;;5018672;28;20034;-81
2023/03/28 07:01:35;;;;;;;8.90;2.13;;;;;;;;;;5037258;28;20025;-80
2023/03/28 07:04:01;;;;;;;8.13;2.00;;;;;;;;;;5037462;28;20026;-81
2023/03/28 07:06:48;;;;;;;4.22;1.80;;;;;;;;;;5041354;28;20030;-81
2023/03/28 07:09:13;;;;;;;4.85;2.05;;;;;;;;;;5019794;28;20034;-82
2023/03/28 07:11:39;;;;;;;3.53;1.55;;;;;;;;;;5026948;28;20021;-82
2023/03/28 07:14:19;;;;;;;7.07;1.80;;;;;;;;;;5010582;28;20082;-82
2023/03/28 07:16:45;;;;;;;7.00;1.90;;;;;;;;;;5008428;28;20026;-82
2023/03/28 07:19:10;;;;;;;6.10;1.80;;;;;;;;;;5017581;28;20093;-83
2023/03/28 07:21:35;;;;;;;4.25;1.70;;;;;;;;;;5038033;28;20033;-84
2023/03/28 07:24:03;;;;;;;3.13;1.30;;;;;;;;;;5024328;28;20101;-85
2023/03/28 07:26:30;;;;;;;4.53;1.50;;;;;;;;;;5028554;28;20328;-83
2023/03/28 07:28:55;;;;;;;4.95;2.25;;;;;;;;;;5018365;28;20250;-82
2023/03/28 07:31:21;;;;;;;3.42;1.50;;;;;;;;;;5019729;28;20048;-83
2023/03/28 07:33:49;;;;;;;2.47;1.70;;;;;;;;;;5023755;28;20018;-83
2023/03/28 07:36:18;;;;;;;1.55;1.35;;;;;;;;;;5032569;28;20034;-83
2023/03/28 07:38:43;;;;;;;4.03;2.33;;;;;;;;;;5029149;28;20056;-83
2023/03/28 07:41:09;;;;;;;10.48;2.15;;;;;;;;;;5003300;28;20408;-81
2023/03/28 07:43:37;;;;;;;4.80;2.33;;;;;;;;;;5021205;28;20025;-82
2023/03/28 07:46:08;;;;;;;10.38;2.17;;;;;;;;;;5025377;28;20040;-83
2023/03/28 07:48:35;;;;;;;2.63;1.77;;;;;;;;;;5026502;28;20492;-81
2023/03/28 07:51:01;;;;;;;4.07;1.80;;;;;;;;;;5026494;28;20553;-82
2023/03/28 07:53:27;;;;;;;6.00;2.78;;;;;;;;;;5037517;28;20029;-82
2023/03/28 07:55:53;;;;;;;5.93;1.80;;;;;;;;;;5024583;28;20030;-82
2023/03/28 07:58:19;;;;;;;5.72;1.80;;;;;;;;;;5012545;28;20022;-82
2023/03/28 08:00:44;;;;;;;3.53;1.80;;;;;;;;;;5020167;28;20045;-82
2023/03/28 08:03:11;;;;;;;3.15;1.52;;;;;;;;;;5021458;28;20126;-82
2023/03/28 08:05:37;;;;;;;2.97;1.40;;;;;;;;;;5009021;28;20057;-82
2023/03/28 08:08:04;;;;;;;2.92;1.55;;;;;;;;;;5008930;28;20026;-81
2023/03/28 08:10:29;;;;;;;5.13;1.60;;;;;;;;;;5007617;28;20049;-81
2023/03/28 08:12:54;;;;;;;6.20;1.88;;;;;;;;;;5022052;28;20058;-82
2023/03/28 08:15:20;;;;;;;6.53;2.05;;;;;;;;;;5040881;28;20025;-82
2023/03/28 08:17:45;;;;;;;7.90;1.63;;;;;;;;;;5025432;28;20030;-82
2023/03/28 08:20:11;;;;;;;5.38;1.65;;;;;;;;;;5025895;28;20029;-82
2023/03/28 08:22:36;;;;;;;1.25;1.15;;;;;;;;;;5006730;28;20018;-82
2023/03/28 08:25:03;;;;;;;2.28;1.35;;;;;;;;;;5025496;28;20036;-81
2023/03/28 08:27:28;;;;;;;4.80;1.50;;;;;;;;;;5045787;28;20084;-82
2023/03/28 08:29:53;;;;;;;3.78;1.30;;;;;;;;;;5035952;28;20018;-82
2023/03/28 08:32:19;;;;;;;3.30;1.23;;;;;;;;;;5019581;28;20632;-82
2023/03/28 08:34:44;;;;;;;7.10;1.58;;;;;;;;;;5015092;28;20022;-82
2023/03/28 08:37:10;;;;;;;4.75;1.40;;;;;;;;;;5023976;28;20119;-81
2023/03/28 08:39:36;;;;;;;3.75;1.35;;;;;;;;;;5006172;28;20030;-82
2023/03/28 08:42:23;;;;;;;5.75;1.73;;;;;;;;;;5004997;28;20045;-81
2023/03/28 08:45:07;;;;;;;5.60;1.60;;;;;;;;;;5016742;28;20036;-81
2023/03/28 08:47:52;;;;;;;6.63;1.50;;;;;;;;;;5017450;28;20025;-82
2023/03/28 08:50:26;;;;;;;3.45;1.63;;;;;;;;;;5032652;28;20105;-82
2023/03/28 08:52:52;;;;;;;7.95;1.88;;;;;;;;;;5012972;28;20029;-81
2023/03/28 08:55:34;;;;;;;4.28;1.65;;;;;;;;;;5025998;28;20027;-84
2023/03/28 08:58:00;;;;;;;5.60;1.47;;;;;;;;;;5002349;28;20025;-82
2023/03/28 09:00:35;;;;;;;2.70;1.60;;;;;;;;;;5028231;28;20121;-82
2023/03/28 09:03:08;;;;;;;2.70;1.38;;;;;;;;;;5017955;28;20033;-82
2023/03/28 09:05:55;;;;;;;1.98;1.63;;;;;;;;;;5025307;28;20034;-83
2023/03/28 09:08:33;;;;;;;5.65;1.38;;;;;;;;;;5019607;28;20033;-83
2023/03/28 09:11:11;;;;;;;1.83;1.23;;;;;;;;;;5005903;28;20031;-82
2023/03/28 09:13:42;;;;;;;2.53;1.20;;;;;;;;;;5015730;28;20026;-82
2023/03/28 09:16:31;;;;;;;3.60;1.17;;;;;;;;;;5023658;28;20040;-81
2023/03/28 09:19:05;;;;;;;3.30;1.30;;;;;;;;;;5007599;28;20033;-82
2023/03/28 09:21:46;;;;;;;2.78;1.00;;;;;;;;;;5006178;28;20324;-82
2023/03/28 09:24:37;;;;;;;1.40;0.98;;;;;;;;;;5025522;28;20581;-81
2023/03/28 09:27:24;;;;;;;4.22;1.42;;;;;;;;;;5002581;28;20053;-83
2023/03/28 09:29:55;;;;;;;1.75;1.02;;;;;;;;;;5022565;28;20571;-82
2023/03/28 09:32:26;;;;;;;3.33;1.13;;;;;;;;;;5018676;28;20022;-81
2023/03/28 09:34:52;;;;;;;3.35;0.88;;;;;;;;;;5023666;28;20034;-82
2023/03/28 09:37:29;;;;;;;1.08;0.70;;;;;;;;;;5005414;28;20330;-81
2023/03/28 09:39:59;;;;;;;1.65;1.00;;;;;;;;;;5023051;28;20038;-82
2023/03/28 09:42:43;;;;;;;2.03;1.38;;;;;;;;;;5023717;28;20010;-82
2023/03/28 09:45:11;;;;;;;3.67;0.93;;;;;;;;;;5024372;28;20022;-82
2023/03/28 09:47:36;;;;;;;5.50;1.27;;;;;;;;;;5012534;28;20040;-83
2023/03/28 09:50:14;;;;;;;1.05;1.05;;;;;;;;;;5024359;28;20026;-82
2023/03/28 09:52:40;;;;;;;2.28;1.00;;;;;;;;;;5005446;28;20491;-82
2023/03/28 09:55:17;;;;;;;2.67;1.20;;;;;;;;;;5024029;28;20044;-83
2023/03/28 09:58:09;;;;;;;2.80;1.20;;;;;;;;;;5023904;28;20028;-83
2023/03/28 10:00:54;;;;;;;2.15;1.00;;;;;;;;;;5035766;28;20055;-83
2023/03/28 10:03:29;;;;;;;1.02;0.93;;;;;;;;;;5019669;28;20393;-83
2023/03/28 10:05:59;;;;;;;3.70;1.13;;;;;;;;;;5015436;28;20026;-81
2023/03/28 10:08:39;;;;;;;4.70;1.38;;;;;;;;;;5011457;28;20041;-82
2023/03/28 10:11:12;;;;;;;1.02;0.82;;;;;;;;;;5013474;28;20026;-82
2023/03/28 10:13:46;;;;;;;2.45;1.30;;;;;;;;;;5013351;28;20064;-82
2023/03/28 10:16:14;;;;;;;2.47;1.20;;;;;;;;;;4994634;28;20041;-82
2023/03/28 10:18:41;;;;;;;3.55;1.40;;;;;;;;;;5020090;28;20029;-82
2023/03/28 10:21:14;;;;;;;2.92;0.93;;;;;;;;;;5014933;28;20747;-82
2023/03/28 10:23:46;;;;;;;1.80;0.82;;;;;;;;;;5010630;28;20644;-82
2023/03/28 10:26:20;;;;;;;6.93;1.50;;;;;;;;;;4995271;28;20049;-82
2023/03/28 10:28:47;;;;;;;1.50;1.00;;;;;;;;;;5006597;28;20089;-84
2023/03/28 10:31:21;;;;;;;5.25;1.38;;;;;;;;;;5005110;23;20046;-82
2023/03/28 10:33:51;;;;;;;1.60;1.50;;;;;;;;;;5005933;28;20048;-82
2023/03/28 10:36:30;;;;;;;4.25;1.02;;;;;;;;;;5017260;28;20056;-81
2023/03/28 10:38:56;;;;;;;6.70;1.25;;;;;;;;;;5026057;28;20036;-82
2023/03/28 10:41:32;;;;;;;2.15;1.23;;;;;;;;;;5025603;28;20050;-84
2023/03/28 10:43:57;;;;;;;1.40;1.13;;;;;;;;;;5012952;28;21537;-83
2023/03/28 10:46:31;;;;;;;1.48;1.17;;;;;;;;;;5011267;28;20040;-83
2023/03/28 10:49:02;;;;;;;2.75;1.00;;;;;;;;;;5010862;28;20034;-83
2023/03/28 10:51:33;;;;;;;1.80;1.38;;;;;;;;;;5008204;28;20100;-82
2023/03/28 10:54:22;;;;;;;6.45;1.50;;;;;;;;;;5011773;28;20109;-83
2023/03/28 10:57:06;;;;;;;2.78;1.30;;;;;;;;;;5004502;28;20503;-82
2023/03/28 10:59:46;;;;;;;5.03;1.50;;;;;;;;;;5006802;28;20066;-83
2023/03/28 11:02:21;;;;;;;2.70;1.40;;;;;;;;;;5015908;28;20100;-83
2023/03/28 11:04:49;;;;;;;1.92;1.20;;;;;;;;;;5031245;28;20104;-83
2023/03/28 11:07:32;;;;;;;1.48;1.05;;;;;;;;;;5017256;28;20089;-82
2023/03/28 11:10:07;;;;;;;3.78;1.33;;;;;;;;;;5012908;28;20030;-82
2023/03/28 11:12:35;;;;;;;2.25;1.35;;;;;;;;;;5006855;28;20026;-84
2023/03/28 11:15:41;;;;;;;3.28;1.58;;;;;;;;;;5002236;28;20543;-84
2023/03/28 11:18:42;;;;;;;3.78;1.40;;;;;;;;;;5009683;28;20032;-84
2023/03/28 11:21:13;;;;;;;6.32;1.52;;;;;;;;;;5005919;28;20030;-83
2023/03/28 11:23:47;;;;;;;1.30;1.20;;;;;;;;;;5022654;28;20540;-83
2023/03/28 11:26:24;;;;;;;1.45;0.98;;;;;;;;;;5012911;28;20042;-83
2023/03/28 11:29:13;;;;;;;1.88;1.27;;;;;;;;;;5016981;28;20034;-83
2023/03/28 11:31:59;;;;;;;1.85;1.33;;;;;;;;;;5020032;28;20160;-82
2023/03/28 11:34:39;;;;;;;1.60;1.13;;;;;;;;;;5028070;28;20040;-82
2023/03/28 11:37:21;;;;;;;7.40;1.67;;;;;;;;;;5007480;28;20034;-81
2023/03/28 11:39:53;;;;;;;6.75;1.92;;;;;;;;;;5005033;28;20030;-82
2023/03/28 11:42:26;;;;;;;2.47;1.30;;;;;;;;;;5080527;22;20868;-82
2023/03/28 11:45:17;;;;;;;3.90;1.20;;;;;;;;;;5036971;28;20572;-83
2023/03/28 11:48:18;;;;;;;3.65;1.48;;;;;;;;;;5020891;28;20101;-82
2023/03/28 11:51:03;;;;;;;2.35;1.40;;;;;;;;;;5033607;28;20060;-82
2023/03/28 11:53:56;;;;;;;2.25;1.15;;;;;;;;;;5035218;28;20037;-82
2023/03/28 11:56:45;;;;;;;4.20;1.58;;;;;;;;;;5046800;22;20387;-83
2023/03/28 11:59:21;;;;;;;3.65;1.67;;;;;;;;;;5013037;28;20035;-83
2023/03/28 12:01:52;;;;;;;2.35;1.67;;;;;;;;;;5012342;28;20037;-83
2023/03/28 12:04:26;;;;;;;1.50;1.35;;;;;;;;;;5012366;28;20144;-82
2023/03/28 12:07:14;;;;;;;6.63;1.55;;;;;;;;;;5016122;28;20047;-82
2023/03/28 12:10:02;;;;;;;2.45;1.48;;;;;;;;;;5027054;28;20064;-81
2023/03/28 12:12:46;;;;;;;3.60;1.40;;;;;;;;;;5031762;28;20044;-82
2023/03/28 12:15:16;;;;;;;10.98;1.75;;;;;;;;;;5028154;28;20025;-82
2023/03/28 12:17:58;;;;;;;3.05;1.17;;;;;;;;;;5025976;28;20067;-82
2023/03/28 12:20:37;;;;;;;1.30;1.20;;;;;;;;;;5033577;28;20029;-81
2023/03/28 12:23:10;;;;;;;1.85;1.20;;;;;;;;;;5010633;28;20047;-81
2023/03/28 12:25:51;;;;;;;5.35;1.60;;;;;;;;;;5023318;28;20084;-82
2023/03/28 12:32:16;;;;;;;2.22;1.67;;;;;;;;;;4994568;28;20040;-82
2023/03/28 12:34:52;;;;;;;2.63;1.38;;;;;;;;;;5014943;28;20523;-83
2023/03/28 12:40:53;;;;;;;2.30;1.50;;;;;;;;;;5034021;28;20043;-84
2023/03/28 12:43:25;;;;;;;1.00;0.98;;;;;;;;;;5031901;28;20112;-82
2023/03/28 12:46:00;;;;;;;4.15;1.50;;;;;;;;;;5045323;28;20032;-82
2023/03/28 12:48:35;;;;;;;3.45;1.15;;;;;;;;;;5038015;28;20067;-81
2023/03/28 12:51:08;;;;;;;1.15;1.05;;;;;;;;;;5055351;28;20041;-81
2023/03/28 12:53:39;;;;;;;2.58;1.30;;;;;;;;;;5047613;28;20028;-81
2023/03/28 12:56:10;;;;;;;2.72;1.25;;;;;;;;;;5067736;28;20009;-80
2023/03/28 12:58:38;;;;;;;1.52;1.00;;;;;;;;;;5052416;28;20038;-82
2023/03/28 13:01:07;;;;;;;4.07;1.30;;;;;;;;;;5030947;28;20105;-81
2023/03/28 13:03:41;;;;;;;1.65;1.23;;;;;;;;;;5038316;28;20029;-82
2023/03/28 13:06:38;;;;;;;2.90;1.35;;;;;;;;;;5034782;28;20030;-82
2023/03/28 13:09:37;;;;;;;4.05;1.58;;;;;;;;;;5041366;28;20771;-81
2023/03/28 13:12:21;;;;;;;2.50;1.40;;;;;;;;;;5039589;28;20108;-83
2023/03/28 13:15:02;;;;;;;3.50;1.55;;;;;;;;;;5036622;28;20083;-82
2023/03/28 13:17:32;;;;;;;4.03;1.13;;;;;;;;;;5038361;28;20052;-82
2023/03/28 13:20:14;;;;;;;7.90;1.65;;;;;;;;;;5027349;28;20033;-82
2023/03/28 13:22:56;;;;;;;3.13;1.20;;;;;;;;;;5044794;28;20026;-81
2023/03/28 13:25:27;;;;;;;5.05;1.60;;;;;;;;;;5026408;28;20056;-82
2023/03/28 13:27:55;;;;;;;1.90;1.23;;;;;;;;;;5035539;28;20044;-82
2023/03/28 13:30:25;;;;;;;2.42;1.48;;;;;;;;;;5035501;28;20492;-82
2023/03/28 13:32:55;;;;;;;1.80;1.02;;;;;;;;;;5033469;28;20324;-82
2023/03/28 13:35:44;;;;;;;3.00;1.35;;;;;;;;;;5025564;28;20026;-82
2023/03/28 13:38:28;;;;;;;2.25;0.88;;;;;;;;;;5038386;28;20032;-82
2023/03/28 13:41:08;;;;;;;3.03;1.15;;;;;;;;;;5043212;28;20025;-84
2023/03/28 13:43:44;;;;;;;4.53;1.25;;;;;;;;;;5019027;28;20087;-82
2023/03/28 13:46:40;;;;;;;1.75;1.15;;;;;;;;;;5036784;28;20032;-83
2023/03/28 13:49:09;;;;;;;4.15;1.27;;;;;;;;;;5044970;28;20124;-83
2023/03/28 13:51:47;;;;;;;3.50;1.33;;;;;;;;;;5045404;28;20024;-83
2023/03/28 13:54:14;;;;;;;5.53;1.90;;;;;;;;;;5028057;28;20120;-83
2023/03/28 13:56:43;;;;;;;4.38;1.50;;;;;;;;;;5019434;28;20025;-83
2023/03/28 13:59:13;;;;;;;3.92;1.45;;;;;;;;;;5033345;28;20433;-83
2023/03/28 14:01:52;;;;;;;3.10;1.42;;;;;;;;;;5034086;28;20095;-84
2023/03/28 14:04:25;;;;;;;1.55;1.20;;;;;;;;;;5021627;28;20040;-83
2023/03/28 14:06:51;;;;;;;1.33;1.25;;;;;;;;;;5020405;28;20467;-83
2023/03/28 14:09:20;;;;;;;6.50;1.80;;;;;;;;;;5030768;28;20039;-82
2023/03/28 14:11:48;;;;;;;3.67;1.00;;;;;;;;;;5020273;28;20017;-82
2023/03/28 14:14:21;;;;;;;0.93;0.93;;;;;;;;;;5023896;28;20040;-82
2023/03/28 14:16:46;;;;;;;3.95;1.48;;;;;;;;;;5036155;28;20033;-82
2023/03/28 14:19:39;;;;;;;4.63;1.42;;;;;;;;;;5035387;28;20052;-82
2023/03/28 14:22:27;;;;;;;3.40;1.42;;;;;;;;;;5004782;28;20072;-82
2023/03/28 14:25:26;;;;;;;1.17;1.00;;;;;;;;;;5040781;28;21350;-83
2023/03/28 14:28:09;;;;;;;3.50;1.60;;;;;;;;;;5035175;28;20123;-82
2023/03/28 14:30:43;;;;;;;6.65;2.10;;;;;;;;;;5005422;28;20052;-82
2023/03/28 14:33:09;;;;;;;5.47;1.80;;;;;;;;;;5017632;28;20095;-82
2023/03/28 14:35:36;;;;;;;6.15;1.67;;;;;;;;;;5042268;28;20033;-82
2023/03/28 14:38:06;;;;;;;2.80;1.40;;;;;;;;;;5038082;28;20033;-82
2023/03/28 14:40:36;;;;;;;2.20;1.42;;;;;;;;;;5030462;28;20044;-82
2023/03/28 14:43:18;;;;;;;7.43;1.80;;;;;;;;;;5037881;28;20029;-81
2023/03/28 14:45:50;;;;;;;;;;;;;;;;;;5034723;28;20051;-82
2023/03/28 14:48:26;;;;;;;3.25;1.13;;;;;;;;;;5022850;28;19952;-83
2023/03/28 14:50:52;;;;;;;2.10;1.08;;;;;;;;;;5036856;28;20025;-82
2023/03/28 14:53:21;;;;;;;1.10;1.08;;;;;;;;;;5021501;28;20086;-82
2023/03/28 14:55:49;;;;;;;2.10;1.10;;;;;;;;;;5020335;28;20037;-82
2023/03/28 14:58:17;;;;;;;2.05;1.05;;;;;;;;;;5037996;28;20029;-82
2023/03/28 15:00:46;;;;;;;3.50;1.10;;;;;;;;;;5031943;28;20032;-82
2023/03/28 15:03:49;;;;;;;3.92;1.60;;;;;;;;;;5027792;28;20029;-82
2023/03/28 15:06:16;;;;;;;1.23;0.90;;;;;;;;;;5034943;28;20026;-83
2023/03/28 15:08:43;;;;;;;1.20;1.10;;;;;;;;;;5036603;28;20049;-83
2023/03/28 15:11:24;;;;;;;5.57;1.30;;;;;;;;;;5017751;28;20106;-83
2023/03/28 15:14:32;;;;;;;4.50;1.75;;;;;;;;;;5021821;28;20030;-81
2023/03/28 15:16:58;;;;;;;1.98;1.08;;;;;;;;;;5015959;28;20096;-80
2023/03/28 15:19:31;;;;;;;1.27;1.17;;;;;;;;;;5030322;28;20012;-79
2023/03/28 15:22:03;;;;;;;1.40;1.30;;;;;;;;;;5034223;28;20634;-81
2023/03/28 15:24:30;;;;;;;5.55;1.67;;;;;;;;;;5031927;28;20033;-82
2023/03/28 15:27:00;;;;;;;2.05;1.30;;;;;;;;;;5025205;28;20055;-81